Fanwood, NJ (07023)

9:05 AM EST on February 11, 2016 (GMT -0500)
Fire Station #161 | | Change Station
CLOSE
Current Station
Personal Weather Station
Location: Scotch Plains, NJ
Elevation: 144 ft
Nearby Weather Stations

Elev 144 ft 40.65 °N, 74.40 °W | Updated 10 seconds ago

Clear
Clear
26.1 °F
Feels Like 19 °F
N
6.0
Wind Variable Wind from North
Gusts 15.0 mph

Today
High -- | Low -- °F
--% Chance of Precip.
Yesterday
High -- | Low -- °F
Precip. -- in
Pressure 29.95 in
Visibility 10.0 miles
Clouds Clear
Windchill 19 °F
Dew Point 6 °F
Humidity 41%
Rainfall 0.00 in
Snow Depth Not available.
6:57 AM 5:27 PM
Waxing Crescent, 12% visible
METAR KLDJ 111355Z AUTO 30017G23KT 10SM CLR M04/M17 A2995 RMK AO2 T10451173
Pressure 29.95 in
Visibility 10.0 miles
Clouds Clear
Windchill 19 °F
Dew Point 6 °F
Humidity 41%
Rainfall 0.00 in
Snow Depth Not available.
6:57 AM 5:27 PM
Waxing Crescent, 12% visible
METAR KLDJ 111355Z AUTO 30017G23KT 10SM CLR M04/M17 A2995 RMK AO2 T10451173

10-Day Weather Forecast

Almanac

Astronomy

Feb. 11, 2016 Rise Set
Actual Time
Civil Twilight
Nautical Twilight
Astronomical Twilight
Moon
Length of Visible Light
Length of Day
Tomorrow will be .
, % of the Moon is Illuminated

Today's Extremes

State Highs State Lows

Community

WunderPhotos

Upload Photos

1,892,047 photos uploaded!

WunderBlog® & News

Nearby

Air Quality

  Air Quality AQ Index Pollutant
Not available.

Snow Depth

Station Depth Elevation

Earthquake Activity

City Distance Mag. Time & Date
Minimum magnitude displayed is 2.5.

Coastal Water Temperatures

Place Temperature

Stations

Nearby Weather Stations

Station Location Temp. Windchill Dew Point Humidity Wind Precip. Elev Updated Type
                   

Watches & Warnings

There are currently no watches in effect.